Time;durP1;ratioP1;P1;durP2;ratioP2;P2;SDS_P1;SDS_P2;PMS_P1;PMS_P2;Temp;Humidity;BMP_temperature;BMP_pressure;BME280_temperature;BME280_humidity;BME280_pressure;Samples;Min_cycle;Max_cycle;Signal;HPM_P1;HPM_P2
2023/12/26 00:03:22;;;;;;;29.20;27.90;;;;;;;8.65;100.00;100036.47;10458243;28;20048;-78
2023/12/26 00:08:22;;;;;;;30.50;29.00;;;;;;;8.66;100.00;100027.16;10472945;28;20045;-77
2023/12/26 00:13:23;;;;;;;30.05;28.65;;;;;;;8.62;100.00;100003.22;10473316;28;20052;-79
2023/12/26 00:18:23;;;;;;;31.33;29.77;;;;;;;8.66;100.00;100005.22;10438447;28;20033;-77
2023/12/26 00:23:24;;;;;;;29.33;27.92;;;;;;;8.69;100.00;99999.19;10432488;28;20071;-75
2023/12/26 00:28:25;;;;;;;29.20;27.90;;;;;;;8.64;100.00;99982.69;10456574;28;20049;-78
2023/12/26 00:33:25;;;;;;;31.98;30.35;;;;;;;8.67;100.00;99971.19;10472223;28;20512;-77
2023/12/26 00:38:26;;;;;;;29.50;28.00;;;;;;;8.68;100.00;99980.22;10454516;28;20052;-80
2023/12/26 00:43:26;;;;;;;30.30;28.90;;;;;;;8.69;100.00;99971.72;10449714;28;20131;-78
2023/12/26 00:48:27;;;;;;;29.95;28.50;;;;;;;8.69;100.00;99999.19;10455740;28;20041;-78
2023/12/26 00:53:27;;;;;;;32.05;30.38;;;;;;;8.63;100.00;99971.97;10456617;28;20155;-76
2023/12/26 00:58:28;;;;;;;30.45;29.05;;;;;;;8.75;100.00;100001.97;10456165;28;20068;-79
2023/12/26 01:03:28;;;;;;;32.60;31.10;;;;;;;8.78;100.00;100007.75;10456945;28;20041;-78
2023/12/26 01:08:29;;;;;;;31.45;30.05;;;;;;;8.68;100.00;99986.56;10463201;28;20091;-79
2023/12/26 01:13:34;;;;;;;29.67;28.17;;;;;;;8.73;100.00;99976.72;10463033;28;20056;-79
2023/12/26 01:18:34;;;;;;;30.27;28.88;;;;;;;8.84;100.00;99997.63;10424677;28;20041;-79
2023/12/26 01:23:35;;;;;;;29.58;28.17;;;;;;;8.86;100.00;100003.69;10464369;28;20045;-77
2023/12/26 01:28:35;;;;;;;30.30;28.90;;;;;;;8.86;100.00;100003.69;10464869;28;20064;-78
2023/12/26 01:33:36;;;;;;;29.35;27.95;;;;;;;8.86;100.00;100004.50;10443134;28;20068;-78
2023/12/26 01:38:37;;;;;;;29.27;27.77;;;;;;;8.87;100.00;100005.34;10479300;28;20092;-78
2023/12/26 01:43:37;;;;;;;32.65;30.77;;;;;;;8.89;100.00;100036.09;10446146;28;20044;-79
2023/12/26 01:48:38;;;;;;;29.27;27.92;;;;;;;8.85;100.00;100024.00;10464908;28;20032;-81
2023/12/26 01:53:39;;;;;;;28.52;27.05;;;;;;;8.78;100.00;100034.38;10463623;28;20104;-79
2023/12/26 01:58:39;;;;;;;29.77;28.00;;;;;;;8.73;100.00;100026.94;10460696;28;20116;-78
2023/12/26 02:03:40;;;;;;;27.88;26.58;;;;;;;8.83;100.00;100059.94;10449198;28;20052;-79
2023/12/26 02:08:41;;;;;;;29.20;27.75;;;;;;;8.89;100.00;100074.53;10444312;28;20086;-77
2023/12/26 02:13:41;;;;;;;29.88;28.27;;;;;;;8.64;100.00;100056.78;10461344;28;20041;-81
2023/12/26 02:18:42;;;;;;;29.75;28.15;;;;;;;8.75;100.00;100063.16;10478313;28;20029;-80
2023/12/26 02:23:42;;;;;;;30.55;28.25;;;;;;;8.92;100.00;100098.72;10445528;28;20036;-81
2023/12/26 02:28:43;;;;;;;28.40;26.75;;;;;;;8.92;100.00;100112.44;10460367;28;20052;-79
2023/12/26 02:33:45;;;;;;;28.60;27.02;;;;;;;8.89;100.00;100121.22;10442276;28;20041;-81
2023/12/26 02:38:46;;;;;;;26.85;25.10;;;;;;;8.86;100.00;100121.72;10459210;28;20041;-79
2023/12/26 02:43:47;;;;;;;29.92;27.70;;;;;;;8.79;100.00;100118.38;10442333;28;20094;-79
2023/12/26 02:48:47;;;;;;;28.50;26.40;;;;;;;8.80;100.00;100136.47;10460827;28;20041;-78
2023/12/26 02:53:48;;;;;;;29.27;26.60;;;;;;;8.81;100.00;100138.16;10477499;28;20102;-78
2023/12/26 02:58:48;;;;;;;27.92;25.48;;;;;;;8.71;100.00;100149.84;10459438;28;20060;-82
2023/12/26 03:03:49;;;;;;;29.20;26.45;;;;;;;8.82;100.00;100162.56;10423449;28;20504;-78
2023/12/26 03:08:49;;;;;;;30.25;27.58;;;;;;;8.80;100.00;100183.13;10473298;28;20041;-80
2023/12/26 03:13:49;;;;;;;26.73;24.73;;;;;;;8.77;100.00;100178.19;10438787;28;20110;-77
2023/12/26 03:18:50;;;;;;;23.30;21.52;;;;;;;8.50;100.00;100159.78;10457658;28;20068;-78
2023/12/26 03:23:51;;;;;;;22.58;20.85;;;;;;;8.58;100.00;100177.69;10460709;28;20040;-75
2023/12/26 03:28:51;;;;;;;21.33;19.63;;;;;;;8.53;100.00;100181.22;10440232;28;20061;-78
2023/12/26 03:33:52;;;;;;;20.80;19.17;;;;;;;8.48;100.00;100167.47;10472970;28;20045;-73
2023/12/26 03:38:52;;;;;;;23.05;20.73;;;;;;;8.41;100.00;100194.25;10458308;28;20048;-81
2023/12/26 03:43:53;;;;;;;23.70;22.00;;;;;;;8.28;100.00;100196.25;10460081;28;20037;-77
2023/12/26 03:48:53;;;;;;;21.42;17.58;;;;;;;8.33;100.00;100213.84;10475921;28;20041;-77
2023/12/26 03:53:54;;;;;;;18.45;16.73;;;;;;;8.21;100.00;100212.09;10459841;28;20049;-75
2023/12/26 03:58:55;;;;;;;16.25;14.50;;;;;;;8.19;100.00;100203.28;10439495;28;20549;-80
2023/12/26 04:03:55;;;;;;;14.15;12.77;;;;;;;8.29;100.00;100247.28;10455384;28;20033;-79
2023/12/26 04:08:56;;;;;;;13.85;11.10;;;;;;;8.23;100.00;100286.72;10457004;28;20067;-78
2023/12/26 04:13:56;;;;;;;12.32;7.75;;;;;;;8.13;100.00;100259.16;10474032;28;20213;-77
2023/12/26 04:18:56;;;;;;;20.00;9.18;;;;;;;7.92;100.00;100268.13;10458367;28;20122;-75
2023/12/26 04:23:57;;;;;;;18.67;7.03;;;;;;;7.77;100.00;100261.38;10459801;28;20064;-77
2023/12/26 04:28:57;;;;;;;19.35;6.55;;;;;;;7.71;100.00;100283.44;10472260;28;20048;-78
2023/12/26 04:33:58;;;;;;;21.17;6.88;;;;;;;7.60;100.00;100287.94;10472118;28;20037;-77
2023/12/26 04:38:58;;;;;;;10.38;6.22;;;;;;;7.37;100.00;100272.50;10456395;28;20071;-78
2023/12/26 04:43:59;;;;;;;16.38;5.90;;;;;;;7.31;100.00;100273.50;10447086;28;20045;-77
2023/12/26 04:48:59;;;;;;;13.55;7.15;;;;;;;7.29;100.00;100309.31;10466240;28;20082;-77
2023/12/26 04:54:00;;;;;;;24.20;8.45;;;;;;;7.25;100.00;100314.44;10464753;28;20059;-78
2023/12/26 04:59:01;;;;;;;18.30;7.53;;;;;;;7.10;100.00;100311.44;10450366;28;20432;-78
2023/12/26 05:04:03;;;;;;;12.15;5.47;;;;;;;7.19;100.00;100322.81;10463102;28;20052;-75
2023/12/26 05:09:04;;;;;;;14.95;6.32;;;;;;;7.24;100.00;100333.88;10464549;28;20041;-75
2023/12/26 05:14:04;;;;;;;15.38;7.25;;;;;;;7.24;100.00;100339.38;10447853;28;20508;-77
2023/12/26 05:19:05;;;;;;;11.60;5.93;;;;;;;7.17;100.00;100341.41;10466298;28;20095;-77
2023/12/26 05:24:06;;;;;;;16.02;7.00;;;;;;;7.19;100.00;100344.72;10463573;28;20070;-75
2023/12/26 05:29:07;;;;;;;13.57;6.30;;;;;;;7.03;100.00;100344.44;10463093;28;20048;-78
2023/12/26 05:34:08;;;;;;;16.40;5.40;;;;;;;7.07;100.00;100353.84;10446676;28;20037;-77
2023/12/26 05:39:08;;;;;;;16.25;5.68;;;;;;;7.23;100.00;100362.31;10478204;28;20037;-79
2023/12/26 05:44:09;;;;;;;13.73;4.22;;;;;;;7.28;100.00;100367.91;10477477;28;20043;-75
2023/12/26 05:49:09;;;;;;;17.63;5.72;;;;;;;7.38;100.00;100379.06;10480984;28;20064;-77
2023/12/26 05:54:10;;;;;;;18.08;5.70;;;;;;;7.54;100.00;100398.50;10444824;28;20041;-78
2023/12/26 05:59:10;;;;;;;13.63;4.55;;;;;;;7.56;100.00;100404.56;10462390;28;20056;-77
2023/12/26 06:04:11;;;;;;;8.80;4.32;;;;;;;7.57;100.00;100425.44;10422740;28;20475;-77
2023/12/26 06:09:11;;;;;;;13.43;5.15;;;;;;;7.59;100.00;100407.66;10463313;28;20037;-77
2023/12/26 06:14:12;;;;;;;18.65;5.40;;;;;;;7.63;100.00;100413.47;10462168;28;20040;-76
2023/12/26 06:19:12;;;;;;;5.57;2.88;;;;;;;7.27;100.00;100366.25;10464858;28;20072;-78
2023/12/26 06:24:13;;;;;;;13.15;3.15;;;;;;;7.64;100.00;100434.31;10461560;28;20485;-77
2023/12/26 06:29:13;;;;;;;8.85;2.40;;;;;;;7.45;100.00;100412.59;10442011;28;20064;-78
2023/12/26 06:34:14;;;;;;;21.70;2.92;;;;;;;7.50;100.00;100431.03;10442813;28;20044;-78
2023/12/26 06:39:15;;;;;;;10.70;2.58;;;;;;;7.59;100.00;100465.19;10476980;28;20052;-78
2023/12/26 06:44:16;;;;;;;15.18;3.58;;;;;;;7.44;100.00;100446.56;10462791;28;20025;-77
2023/12/26 06:49:18;;;;;;;8.40;2.00;;;;;;;7.32;100.00;100462.19;10461910;28;20041;-77
2023/12/26 06:54:19;;;;;;;11.23;2.47;;;;;;;7.43;100.00;100479.66;10459373;28;20102;-76
2023/12/26 06:59:19;;;;;;;14.50;2.90;;;;;;;7.48;100.00;100477.84;10458870;28;20551;-77
2023/12/26 07:04:20;;;;;;;11.70;2.63;;;;;;;7.38;100.00;100458.47;10440873;28;20071;-77
2023/12/26 07:09:20;;;;;;;15.00;3.20;;;;;;;7.62;100.00;100491.25;10459089;28;20508;-75
2023/12/26 07:14:21;;;;;;;9.65;2.72;;;;;;;7.74;100.00;100527.66;10476830;28;20401;-75
2023/12/26 07:19:22;;;;;;;16.73;3.58;;;;;;;7.64;100.00;100509.09;10461855;28;20056;-76
2023/12/26 07:24:22;;;;;;;16.42;2.88;;;;;;;7.67;100.00;100513.28;10458697;28;20048;-76
2023/12/26 07:29:23;;;;;;;20.38;4.03;;;;;;;7.77;100.00;100546.38;10457816;28;20527;-75
2023/12/26 07:34:24;;;;;;;12.30;2.22;;;;;;;7.61;100.00;100537.00;10473167;28;20040;-74
2023/12/26 07:39:24;;;;;;;10.32;2.95;;;;;;;7.64;100.00;100565.81;10474306;28;20045;-75
2023/12/26 07:44:25;;;;;;;14.23;3.45;;;;;;;7.63;100.00;100564.16;10458409;28;20056;-75
2023/12/26 07:49:25;;;;;;;13.55;2.80;;;;;;;7.57;100.00;100567.88;10458523;28;20036;-76
2023/12/26 07:54:26;;;;;;;14.30;4.05;;;;;;;6.99;100.00;100521.16;10458732;28;20045;-76
2023/12/26 07:59:26;;;;;;;9.52;2.58;;;;;;;7.70;100.00;100600.47;10456068;28;20033;-75
2023/12/26 08:04:27;;;;;;;11.77;2.78;;;;;;;7.68;100.00;100597.13;10454837;28;20044;-77
2023/12/26 08:09:27;;;;;;;9.48;2.55;;;;;;;7.63;100.00;100603.34;10432008;28;20041;-76
2023/12/26 08:14:28;;;;;;;16.88;2.88;;;;;;;7.79;100.00;100631.91;10441143;28;20033;-77
2023/12/26 08:19:29;;;;;;;16.48;3.60;;;;;;;7.84;100.00;100647.63;10444892;28;20531;-76
2023/12/26 08:24:30;;;;;;;13.88;2.78;;;;;;;7.85;100.00;100652.88;10454580;28;20152;-75
2023/12/26 08:29:30;;;;;;;15.43;3.40;;;;;;;7.80;100.00;100649.19;10455719;28;20052;-76
2023/12/26 08:34:31;;;;;;;14.05;3.35;;;;;;;7.69;100.00;100650.88;10438420;28;20071;-75
2023/12/26 08:39:32;;;;;;;18.25;3.17;;;;;;;7.26;100.00;100600.06;10438311;28;20061;-75
2023/12/26 08:44:32;;;;;;;13.95;2.97;;;;;;;7.59;100.00;100680.78;10458547;28;20041;-77
2023/12/26 08:49:32;;;;;;;26.33;4.47;;;;;;;7.56;100.00;100679.34;10473473;28;20040;-77
2023/12/26 08:54:33;;;;;;;12.38;3.20;;;;;;;7.22;100.00;100637.22;10462154;28;20493;-76
2023/12/26 08:59:33;;;;;;;11.80;3.75;;;;;;;7.43;100.00;100698.78;10455622;28;20124;-78
2023/12/26 09:04:34;;;;;;;13.57;3.47;;;;;;;7.64;100.00;100727.47;10446187;28;20037;-74
2023/12/26 09:09:34;;;;;;;20.35;3.85;;;;;;;7.58;100.00;100720.22;10455762;28;20033;-78
2023/12/26 09:14:36;;;;;;;11.30;2.67;;;;;;;7.60;100.00;100729.84;10473667;28;20048;-78
2023/12/26 09:19:37;;;;;;;15.32;2.75;;;;;;;7.70;100.00;100742.97;10456198;28;20100;-80
2023/12/26 09:24:37;;;;;;;18.05;3.00;;;;;;;7.79;100.00;100757.13;10441205;28;20064;-79
2023/12/26 09:29:38;;;;;;;11.07;2.95;;;;;;;7.77;100.00;100748.31;10451882;28;20044;-80
2023/12/26 09:34:38;;;;;;;11.98;2.60;;;;;;;7.91;100.00;100770.84;10454177;28;20044;-77
2023/12/26 09:39:39;;;;;;;15.95;3.58;;;;;;;7.94;100.00;100775.81;10462180;28;20041;-76
2023/12/26 09:44:39;;;;;;;12.48;3.30;;;;;;;7.94;100.00;100803.25;10463838;28;20077;-77
2023/12/26 09:49:43;;;;;;;23.58;4.68;;;;;;;7.94;100.00;100803.25;10455669;28;20025;-76
2023/12/26 09:54:44;;;;;;;12.43;3.15;;;;;;;7.90;100.00;100808.38;10476150;28;20037;-75
2023/12/26 09:59:46;;;;;;;15.30;3.28;;;;;;;7.65;100.00;100767.50;10443927;28;20041;-77
2023/12/26 10:04:46;;;;;;;12.60;2.08;;;;;;;7.79;100.00;100799.09;10444710;28;20092;-77
2023/12/26 10:09:48;;;;;;;12.23;2.42;;;;;;;7.88;100.00;100841.50;10462001;28;20041;-77
2023/12/26 10:14:48;;;;;;;8.93;3.17;;;;;;;7.92;100.00;100841.03;10455786;28;20045;-76
2023/12/26 10:19:49;;;;;;;25.50;4.38;;;;;;;7.96;100.00;100839.47;10468317;28;20036;-79
2023/12/26 10:24:49;;;;;;;11.23;3.17;;;;;;;7.98;100.00;100838.19;10459293;28;20076;-78
2023/12/26 10:29:51;;;;;;;14.85;3.25;;;;;;;7.95;100.00;100835.09;10474593;28;20049;-78
2023/12/26 10:34:55;;;;;;;11.95;2.20;;;;;;;8.18;100.00;100862.50;10453293;28;20048;-79
2023/12/26 10:39:55;;;;;;;19.45;3.70;;;;;;;8.23;100.00;100846.16;10473701;28;20120;-77
2023/12/26 10:45:05;;;;;;;14.02;3.80;;;;;;;8.39;100.00;100850.09;10441313;28;20037;-77
2023/12/26 10:50:06;;;;;;;12.40;2.53;;;;;;;8.21;100.00;100801.69;10460860;28;20408;-78
2023/12/26 10:55:07;;;;;;;14.10;2.20;;;;;;;8.49;100.00;100854.97;10457937;28;20067;-77
2023/12/26 13:53:02;;;;;;;7.53;1.93;;;;;;;7.66;100.00;101152.78;10461483;28;22755;-80
2023/12/26 13:58:02;;;;;;;11.85;1.65;;;;;;;7.36;100.00;101119.81;10425428;28;20097;-80
2023/12/26 14:03:03;;;;;;;4.82;1.30;;;;;;;7.53;100.00;101158.44;10461025;28;20056;-75
2023/12/26 14:08:05;;;;;;;4.07;0.95;;;;;;;7.53;100.00;101191.31;10459819;28;20045;-77
2023/12/26 14:13:05;;;;;;;6.47;1.27;;;;;;;7.01;100.00;101158.72;10475795;28;20045;-78
2023/12/26 14:18:08;;;;;;;4.35;1.30;;;;;;;7.07;100.00;101232.59;10461480;28;20481;-77
2023/12/26 14:23:08;;;;;;;4.32;1.60;;;;;;;6.63;100.00;101253.47;10451543;28;20064;-78
2023/12/26 14:28:09;;;;;;;5.82;1.30;;;;;;;6.54;100.00;101249.34;10459871;28;20041;-78
2023/12/26 14:33:09;;;;;;;6.28;1.58;;;;;;;6.70;100.00;101249.88;10440285;28;20037;-78
2023/12/26 14:38:10;;;;;;;10.70;1.83;;;;;;;6.77;100.00;101278.03;10440971;28;20036;-78
2023/12/26 14:43:10;;;;;;;5.07;1.75;;;;;;;6.58;100.00;101286.13;10471976;28;20191;-79
2023/12/26 14:48:11;;;;;;;9.63;1.98;;;;;;;6.51;100.00;101299.03;10441357;28;20033;-78
2023/12/26 14:53:11;;;;;;;6.32;1.40;;;;;;;6.43;100.00;101296.53;10458265;28;20041;-77
2023/12/26 14:58:12;;;;;;;8.70;1.10;;;;;;;6.57;100.00;101313.72;10456505;28;20064;-78
2023/12/26 15:03:12;;;;;;;7.07;1.90;;;;;;;6.39;100.00;101306.22;10455620;28;20033;-78
2023/12/26 15:08:13;;;;;;;3.20;1.35;;;;;;;6.41;100.00;101331.47;10439667;28;20086;-79
2023/12/26 15:13:13;;;;;;;3.35;1.30;;;;;;;6.32;100.00;101344.50;10471950;28;20045;-79
2023/12/26 15:18:14;;;;;;;6.03;1.10;;;;;;;6.10;100.00;101318.47;10456156;28;20037;-78
2023/12/26 15:23:14;;;;;;;8.27;1.30;;;;;;;6.19;100.00;101356.31;10456779;28;20056;-79
2023/12/26 15:28:15;;;;;;;6.75;1.45;;;;;;;6.16;100.00;101370.44;10438155;28;20033;-77
2023/12/26 15:33:16;;;;;;;7.03;1.45;;;;;;;6.00;100.00;101384.53;10471861;28;20049;-78
2023/12/26 15:38:16;;;;;;;7.68;1.63;;;;;;;5.94;100.00;101399.00;10452737;28;20041;-78
2023/12/26 15:43:17;;;;;;;10.52;1.75;;;;;;;5.80;100.00;101418.13;10455235;28;20073;-78
2023/12/26 15:48:17;;;;;;;10.35;1.30;;;;;;;5.75;100.00;101408.91;10472894;28;20041;-78
2023/12/26 15:53:18;;;;;;;8.73;1.35;;;;;;;5.68;100.00;101430.72;10456268;28;20048;-78
2023/12/26 15:58:18;;;;;;;4.63;1.58;;;;;;;5.72;100.00;101439.34;10454240;28;20508;-78
2023/12/26 16:03:20;;;;;;;6.63;1.42;;;;;;;5.75;100.00;101439.78;10455479;28;20033;-77
2023/12/26 16:08:21;;;;;;;3.20;0.95;;;;;;;5.86;100.00;101463.75;10455068;28;20511;-76
2023/12/26 16:13:22;;;;;;;5.90;1.10;;;;;;;5.88;100.00;101432.66;10450748;28;20041;-78
2023/12/26 16:18:22;;;;;;;4.00;0.98;;;;;;;5.91;100.00;101443.97;10455766;28;20052;-75
2023/12/26 16:23:24;;;;;;;10.82;1.55;;;;;;;5.84;100.00;101452.19;10457615;28;20462;-78
2023/12/26 16:28:26;;;;;;;9.38;1.50;;;;;;;5.76;100.00;101455.13;10436520;28;20037;-78
2023/12/26 16:33:27;;;;;;;13.23;2.20;;;;;;;5.62;100.00;101476.13;10455325;28;20047;-77
2023/12/26 16:38:27;;;;;;;8.80;1.90;;;;;;;5.56;100.00;101492.47;10465150;28;20061;-77
2023/12/26 16:43:28;;;;;;;9.95;1.60;;;;;;;5.34;100.00;101492.63;10482215;28;20056;-78
2023/12/26 16:48:28;;;;;;;7.03;1.55;;;;;;;5.31;100.00;101505.84;10473975;28;20056;-78
2023/12/26 16:53:29;;;;;;;11.40;1.80;;;;;;;5.37;100.00;101514.03;10432204;28;20041;-78
2023/12/26 16:58:29;;;;;;;10.57;2.47;;;;;;;5.37;100.00;101537.78;10464744;28;20064;-76
2023/12/26 17:03:30;;;;;;;11.70;1.42;;;;;;;5.35;100.00;101540.72;10451161;28;20045;-77
2023/12/26 17:08:30;;;;;;;18.67;3.25;;;;;;;5.15;100.00;101528.88;10485822;28;20424;-77
2023/12/26 17:13:32;;;;;;;7.97;1.95;;;;;;;5.04;100.00;101533.88;10469501;28;20037;-78
2023/12/26 17:18:32;;;;;;;10.82;2.22;;;;;;;5.11;100.00;101555.75;10434600;28;20087;-77
2023/12/26 17:23:33;;;;;;;7.47;1.58;;;;;;;4.66;100.00;101508.88;10466104;28;20358;-77
2023/12/26 17:28:33;;;;;;;8.23;1.95;;;;;;;4.55;100.00;101513.00;10464487;28;20064;-78
2023/12/26 17:33:34;;;;;;;13.05;1.73;;;;;;;4.81;100.00;101582.41;10482754;28;20044;-77
2023/12/26 17:38:34;;;;;;;12.70;1.92;;;;;;;4.76;100.00;101614.91;10449288;28;20040;-77
2023/12/26 17:43:35;;;;;;;17.17;1.92;;;;;;;4.65;100.00;101605.34;10482109;28;20099;-77
2023/12/26 17:48:36;;;;;;;15.70;3.40;;;;;;;4.56;100.00;101612.84;10449152;28;20188;-77
2023/12/26 17:53:36;;;;;;;8.55;2.28;;;;;;;4.38;100.00;101615.19;10462887;28;20041;-78
2023/12/26 17:58:37;;;;;;;11.30;1.95;;;;;;;4.43;100.00;101642.72;10440044;28;20056;-77
2023/12/26 18:03:38;;;;;;;13.32;2.65;;;;;;;4.41;100.00;101658.44;10460750;28;20041;-77
2023/12/26 18:08:38;;;;;;;14.07;2.92;;;;;;;4.41;100.00;101681.09;10463407;28;20033;-77
2023/12/26 18:13:39;;;;;;;14.02;1.98;;;;;;;4.25;100.00;101676.72;10461992;28;20057;-77
2023/12/26 18:18:39;;;;;;;20.00;3.17;;;;;;;4.27;100.00;101686.59;10458977;28;20485;-76
2023/12/26 18:23:40;;;;;;;12.98;3.42;;;;;;;4.03;100.00;101655.91;10423042;28;20041;-76
2023/12/26 18:28:40;;;;;;;9.77;2.58;;;;;;;4.15;100.00;101692.53;10460120;28;20052;-77
2023/12/26 18:33:41;;;;;;;12.07;3.15;;;;;;;4.23;100.00;101711.50;10476606;28;20481;-73
2023/12/26 18:38:41;;;;;;;14.85;3.00;;;;;;;4.20;100.00;101706.44;10462582;28;20041;-77
2023/12/26 18:43:42;;;;;;;8.25;2.10;;;;;;;4.34;100.00;101720.19;10451620;28;20098;-77
2023/12/26 18:48:44;;;;;;;12.00;3.00;;;;;;;4.08;100.00;101663.53;10453301;28;20061;-77
2023/12/26 18:53:45;;;;;;;12.82;2.65;;;;;;;4.45;100.00;101719.72;10461757;28;20043;-76
2023/12/26 18:58:45;;;;;;;11.75;2.10;;;;;;;4.37;100.00;101719.84;10456093;28;20049;-77
2023/12/26 19:03:46;;;;;;;8.18;2.10;;;;;;;4.38;100.00;101740.59;10424610;28;20053;-75
2023/12/26 19:08:47;;;;;;;13.35;2.85;;;;;;;4.27;100.00;101749.28;10462893;28;20036;-79
2023/12/26 19:13:47;;;;;;;7.28;3.33;;;;;;;4.14;100.00;101766.31;10458540;28;20044;-75
2023/12/26 19:18:48;;;;;;;10.30;1.90;;;;;;;4.10;100.00;101763.13;10476567;28;20049;-76
2023/12/26 19:23:48;;;;;;;18.48;3.42;;;;;;;4.02;100.00;101779.56;10460620;28;20037;-76
2023/12/26 19:28:49;;;;;;;8.82;2.05;;;;;;;3.97;100.00;101782.00;10440619;28;20040;-76
2023/12/26 19:33:50;;;;;;;15.68;4.72;;;;;;;3.84;100.00;101778.09;10457057;28;20530;-76
2023/12/26 19:38:50;;;;;;;14.75;3.63;;;;;;;3.86;100.00;101790.66;10440836;28;20033;-76
2023/12/26 19:43:51;;;;;;;18.15;4.07;;;;;;;3.77;100.00;101787.19;10440411;28;20073;-76
2023/12/26 19:48:56;;;;;;;11.85;2.33;;;;;;;3.86;100.00;101796.94;10450791;28;20063;-77
2023/12/26 19:53:56;;;;;;;5.97;2.10;;;;;;;3.82;100.00;101798.34;10456612;28;20044;-77
2023/12/26 19:58:57;;;;;;;8.68;2.63;;;;;;;3.89;100.00;101806.63;10456183;28;20489;-76
2023/12/26 20:03:58;;;;;;;12.23;3.05;;;;;;;3.78;100.00;101805.19;10423012;28;20041;-78
2023/12/26 20:08:58;;;;;;;18.13;3.38;;;;;;;3.87;100.00;101820.44;10458354;28;20053;-78
2023/12/26 20:13:59;;;;;;;13.60;2.03;;;;;;;3.86;100.00;101828.78;10455856;28;20068;-78
2023/12/26 20:19:00;;;;;;;14.85;4.10;;;;;;;3.70;100.00;101825.22;10441140;28;20532;-78
2023/12/26 20:24:00;;;;;;;12.60;3.08;;;;;;;3.67;100.00;101828.31;10439928;28;20037;-75
2023/12/26 20:29:01;;;;;;;10.80;3.00;;;;;;;3.51;100.00;101810.22;10454536;28;20064;-78
2023/12/26 20:34:01;;;;;;;7.47;2.83;;;;;;;3.62;100.00;101841.63;10454751;28;20489;-78
2023/12/26 20:39:03;;;;;;;12.57;3.05;;;;;;;3.60;100.00;101846.41;10455820;28;20041;-78
2023/12/26 20:44:04;;;;;;;12.82;3.33;;;;;;;3.56;100.00;101831.47;10455506;28;20045;-78
2023/12/26 20:49:08;;;;;;;12.90;2.70;;;;;;;3.56;100.00;101867.72;10417362;28;20056;-78
2023/12/26 20:54:12;;;;;;;7.78;3.05;;;;;;;3.39;100.00;101856.13;10421434;28;20033;-78
2023/12/26 20:59:13;;;;;;;14.75;2.90;;;;;;;3.27;100.00;101864.91;10435837;28;20040;-78
2023/12/26 21:04:14;;;;;;;10.00;2.92;;;;;;;3.31;100.00;101864.34;10434149;28;20048;-78
2023/12/26 21:09:14;;;;;;;13.20;3.22;;;;;;;3.34;100.00;101874.88;10455095;28;20447;-77
2023/12/26 21:14:15;;;;;;;10.77;2.55;;;;;;;3.18;100.00;101881.28;10457753;28;20048;-78
2023/12/26 21:19:15;;;;;;;16.48;2.60;;;;;;;2.88;100.00;101847.66;10438697;28;20162;-78
2023/12/26 21:24:16;;;;;;;11.82;3.13;;;;;;;3.19;100.00;101887.56;10454568;28;20052;-78
2023/12/26 21:29:17;;;;;;;12.32;2.45;;;;;;;3.13;100.00;101888.31;10459009;28;20040;-78
2023/12/26 21:34:17;;;;;;;19.92;4.35;;;;;;;3.10;100.00;101907.69;10461778;28;20045;-78
2023/12/26 21:39:18;;;;;;;16.23;3.97;;;;;;;2.97;100.00;101919.16;10464370;28;20071;-78
2023/12/26 21:44:18;;;;;;;11.93;3.17;;;;;;;2.73;100.00;101909.25;10463364;28;20102;-78
2023/12/26 21:49:20;;;;;;;12.60;3.40;;;;;;;2.83;100.00;101937.94;10441751;28;20048;-78
2023/12/26 21:54:21;;;;;;;14.48;2.72;;;;;;;2.76;100.00;101930.66;10460755;28;20037;-78
2023/12/26 21:59:21;;;;;;;14.07;3.58;;;;;;;2.29;100.00;101872.56;10459674;28;20048;-78
2023/12/26 22:04:22;;;;;;;6.22;2.45;;;;;;;2.48;100.00;101898.50;10462926;28;20408;-78
2023/12/26 22:09:22;;;;;;;11.27;2.50;;;;;;;2.98;100.00;101967.97;10443603;28;20476;-78
2023/12/26 22:14:23;;;;;;;9.45;1.98;;;;;;;3.01;100.00;101972.19;10437434;28;20048;-77
2023/12/26 22:19:23;;;;;;;11.32;2.20;;;;;;;2.87;100.00;101945.72;10453113;28;20044;-79
2023/12/26 22:24:24;;;;;;;11.05;2.17;;;;;;;2.94;100.00;101969.34;10419870;28;20132;-77
2023/12/26 22:29:24;;;;;;;13.35;2.85;;;;;;;2.83;100.00;101969.72;10443533;28;20040;-77
2023/12/26 22:34:25;;;;;;;12.27;3.00;;;;;;;2.67;100.00;101956.19;10460998;28;20044;-78
2023/12/26 22:39:26;;;;;;;12.35;2.72;;;;;;;2.66;100.00;101968.09;10442688;28;20037;-78
2023/12/26 22:44:27;;;;;;;11.38;2.33;;;;;;;2.62;100.00;101978.47;10442261;28;20037;-78
2023/12/26 22:49:27;;;;;;;12.10;2.30;;;;;;;2.69;100.00;101994.91;10439427;28;20025;-78
2023/12/26 22:54:28;;;;;;;8.13;2.10;;;;;;;2.67;100.00;102000.56;10439693;28;20064;-78
2023/12/26 22:59:28;;;;;;;11.82;2.25;;;;;;;2.59;100.00;102001.41;10437684;28;20564;-78
2023/12/26 23:04:29;;;;;;;9.40;2.63;;;;;;;2.49;100.00;101999.91;10448814;28;20044;-77
2023/12/26 23:09:29;;;;;;;9.00;2.47;;;;;;;2.44;100.00;102005.88;10459107;28;21481;-78
2023/12/26 23:14:30;;;;;;;14.63;2.90;;;;;;;2.41;100.00;102017.91;10458911;28;20159;-78
2023/12/26 23:19:30;;;;;;;9.85;2.50;;;;;;;2.33;100.00;102020.66;10457406;28;20045;-78
2023/12/26 23:24:31;;;;;;;7.35;3.25;;;;;;;2.30;100.00;102022.88;10440317;28;20583;-78
2023/12/26 23:29:31;;;;;;;10.25;3.58;;;;;;;2.13;100.00;102001.16;10457124;28;20033;-78
2023/12/26 23:34:33;;;;;;;6.85;2.35;;;;;;;2.06;100.00;102008.28;10456853;28;20048;-79
2023/12/26 23:39:33;;;;;;;9.18;2.35;;;;;;;2.12;100.00;102026.63;10456732;28;20040;-78
2023/12/26 23:44:34;;;;;;;9.55;2.42;;;;;;;2.07;100.00;102033.56;10441290;28;20041;-76
2023/12/26 23:49:34;;;;;;;11.70;2.60;;;;;;;2.02;100.00;102036.81;10440669;28;21028;-78
2023/12/26 23:54:35;;;;;;;14.07;2.42;;;;;;;2.00;100.00;102034.25;10455847;28;20088;-78
2023/12/26 23:59:36;;;;;;;5.78;2.53;;;;;;;1.98;100.00;102032.72;10455720;28;20120;-78
